sensor_id;sensor_type;location;lat;lon;timestamp;temperature;humidity
19878;DHT22;10101;52.204;9.910;2024-01-30T00:01:13;4.30;99.90
19878;DHT22;10101;52.204;9.910;2024-01-30T00:03:40;4.40;99.90
19878;DHT22;10101;52.204;9.910;2024-01-30T00:06:07;4.50;99.90
19878;DHT22;10101;52.204;9.910;2024-01-30T00:08:35;4.50;99.90
19878;DHT22;10101;52.204;9.910;2024-01-30T00:11:02;4.50;99.90
19878;DHT22;10101;52.204;9.910;2024-01-30T00:13:29;4.50;99.90
19878;DHT22;10101;52.204;9.910;2024-01-30T00:15:55;4.40;99.90
19878;DHT22;10101;52.204;9.910;2024-01-30T00:18:22;4.20;99.90
19878;DHT22;10101;52.204;9.910;2024-01-30T00:20:49;4.20;99.90
19878;DHT22;10101;52.204;9.910;2024-01-30T00:23:16;4.20;1.00
19878;DHT22;10101;52.204;9.910;2024-01-30T00:25:44;4.30;1.00
19878;DHT22;10101;52.204;9.910;2024-01-30T00:28:10;4.30;1.00
19878;DHT22;10101;52.204;9.910;2024-01-30T00:30:37;4.30;1.00
19878;DHT22;10101;52.204;9.910;2024-01-30T00:33:04;4.40;1.00
19878;DHT22;10101;52.204;9.910;2024-01-30T00:35:31;4.40;1.00
19878;DHT22;10101;52.204;9.910;2024-01-30T00:37:58;4.50;1.00
19878;DHT22;10101;52.204;9.910;2024-01-30T00:40:24;4.70;38.80
19878;DHT22;10101;52.204;9.910;2024-01-30T00:42:52;4.80;1.00
19878;DHT22;10101;52.204;9.910;2024-01-30T00:45:19;4.80;1.00
19878;DHT22;10101;52.204;9.910;2024-01-30T00:47:46;4.70;1.00
19878;DHT22;10101;52.204;9.910;2024-01-30T00:50:12;4.80;16.50
19878;DHT22;10101;52.204;9.910;2024-01-30T00:52:39;4.80;1.00
19878;DHT22;10101;52.204;9.910;2024-01-30T00:55:07;4.80;1.00
19878;DHT22;10101;52.204;9.910;2024-01-30T00:57:34;4.80;1.00
19878;DHT22;10101;52.204;9.910;2024-01-30T01:00:02;4.90;1.00
19878;DHT22;10101;52.204;9.910;2024-01-30T01:02:30;4.90;1.00
19878;DHT22;10101;52.204;9.910;2024-01-30T01:04:57;4.90;1.00
19878;DHT22;10101;52.204;9.910;2024-01-30T01:07:24;4.80;1.00
19878;DHT22;10101;52.204;9.910;2024-01-30T01:09:51;4.80;1.00
19878;DHT22;10101;52.204;9.910;2024-01-30T01:12:17;4.70;1.00
19878;DHT22;10101;52.204;9.910;2024-01-30T01:14:45;4.70;1.00
19878;DHT22;10101;52.204;9.910;2024-01-30T01:17:13;4.70;1.00
19878;DHT22;10101;52.204;9.910;2024-01-30T01:19:39;4.70;1.00
19878;DHT22;10101;52.204;9.910;2024-01-30T01:22:06;4.70;1.00
19878;DHT22;10101;52.204;9.910;2024-01-30T01:24:33;4.60;1.00
19878;DHT22;10101;52.204;9.910;2024-01-30T01:27:00;4.70;1.00
19878;DHT22;10101;52.204;9.910;2024-01-30T01:29:27;4.70;1.00
19878;DHT22;10101;52.204;9.910;2024-01-30T01:31:54;4.80;1.00
19878;DHT22;10101;52.204;9.910;2024-01-30T01:34:22;4.80;2.00
19878;DHT22;10101;52.204;9.910;2024-01-30T01:36:49;4.80;2.40
19878;DHT22;10101;52.204;9.910;2024-01-30T01:39:16;4.70;29.90
19878;DHT22;10101;52.204;9.910;2024-01-30T01:41:43;4.70;19.20
19878;DHT22;10101;52.204;9.910;2024-01-30T01:44:10;4.70;59.80
19878;DHT22;10101;52.204;9.910;2024-01-30T01:46:37;4.80;98.50
19878;DHT22;10101;52.204;9.910;2024-01-30T01:49:05;4.80;99.90
19878;DHT22;10101;52.204;9.910;2024-01-30T01:51:34;4.80;17.70
19878;DHT22;10101;52.204;9.910;2024-01-30T01:54:03;4.80;97.80
19878;DHT22;10101;52.204;9.910;2024-01-30T01:56:31;4.90;99.90
19878;DHT22;10101;52.204;9.910;2024-01-30T01:59:04;4.90;99.90
19878;DHT22;10101;52.204;9.910;2024-01-30T02:01:32;5.00;99.90
19878;DHT22;10101;52.204;9.910;2024-01-30T02:03:59;5.10;99.90
19878;DHT22;10101;52.204;9.910;2024-01-30T02:06:26;5.10;99.90
19878;DHT22;10101;52.204;9.910;2024-01-30T02:08:54;5.10;99.90
19878;DHT22;10101;52.204;9.910;2024-01-30T02:11:22;5.20;99.90
19878;DHT22;10101;52.204;9.910;2024-01-30T02:13:49;5.20;99.90
19878;DHT22;10101;52.204;9.910;2024-01-30T02:16:16;5.20;99.90
19878;DHT22;10101;52.204;9.910;2024-01-30T02:18:43;5.20;99.90
19878;DHT22;10101;52.204;9.910;2024-01-30T02:21:14;5.20;93.00
19878;DHT22;10101;52.204;9.910;2024-01-30T02:23:41;5.10;78.60
19878;DHT22;10101;52.204;9.910;2024-01-30T02:26:09;5.10;2.50
19878;DHT22;10101;52.204;9.910;2024-01-30T02:28:36;5.10;51.90
19878;DHT22;10101;52.204;9.910;2024-01-30T02:31:03;5.00;11.40
19878;DHT22;10101;52.204;9.910;2024-01-30T02:33:30;5.00;1.00
19878;DHT22;10101;52.204;9.910;2024-01-30T02:35:57;5.00;49.30
19878;DHT22;10101;52.204;9.910;2024-01-30T02:38:25;5.00;23.80
19878;DHT22;10101;52.204;9.910;2024-01-30T02:40:52;5.10;97.60
19878;DHT22;10101;52.204;9.910;2024-01-30T02:43:19;5.20;88.30
19878;DHT22;10101;52.204;9.910;2024-01-30T02:45:45;5.20;88.40
19878;DHT22;10101;52.204;9.910;2024-01-30T02:48:12;5.30;99.90
19878;DHT22;10101;52.204;9.910;2024-01-30T02:50:39;5.30;54.40
19878;DHT22;10101;52.204;9.910;2024-01-30T02:53:05;5.30;41.00
19878;DHT22;10101;52.204;9.910;2024-01-30T02:55:34;5.40;5.50
19878;DHT22;10101;52.204;9.910;2024-01-30T02:58:00;5.40;1.00
19878;DHT22;10101;52.204;9.910;2024-01-30T03:00:27;5.30;1.00
19878;DHT22;10101;52.204;9.910;2024-01-30T03:02:54;5.30;1.00
19878;DHT22;10101;52.204;9.910;2024-01-30T03:05:21;5.40;1.00
19878;DHT22;10101;52.204;9.910;2024-01-30T03:07:47;5.30;1.00
19878;DHT22;10101;52.204;9.910;2024-01-30T03:10:14;5.30;1.00
19878;DHT22;10101;52.204;9.910;2024-01-30T03:12:42;5.30;1.00
19878;DHT22;10101;52.204;9.910;2024-01-30T03:15:09;5.30;1.00
19878;DHT22;10101;52.204;9.910;2024-01-30T03:17:36;5.30;1.00
19878;DHT22;10101;52.204;9.910;2024-01-30T03:20:03;5.40;1.00
19878;DHT22;10101;52.204;9.910;2024-01-30T03:22:31;5.50;1.00
19878;DHT22;10101;52.204;9.910;2024-01-30T03:24:58;5.60;1.00
19878;DHT22;10101;52.204;9.910;2024-01-30T03:27:25;5.60;1.00
19878;DHT22;10101;52.204;9.910;2024-01-30T03:29:53;5.50;1.00
19878;DHT22;10101;52.204;9.910;2024-01-30T03:32:20;5.50;99.90
19878;DHT22;10101;52.204;9.910;2024-01-30T03:34:45;5.50;99.90
19878;DHT22;10101;52.204;9.910;2024-01-30T03:37:12;5.40;99.90
19878;DHT22;10101;52.204;9.910;2024-01-30T03:39:39;5.50;99.90
19878;DHT22;10101;52.204;9.910;2024-01-30T03:42:06;5.40;99.90
19878;DHT22;10101;52.204;9.910;2024-01-30T03:44:32;5.40;94.50
19878;DHT22;10101;52.204;9.910;2024-01-30T03:47:00;5.40;36.50
19878;DHT22;10101;52.204;9.910;2024-01-30T03:49:27;5.40;4.60
19878;DHT22;10101;52.204;9.910;2024-01-30T03:51:54;5.40;1.00
19878;DHT22;10101;52.204;9.910;2024-01-30T03:54:21;5.30;1.00
19878;DHT22;10101;52.204;9.910;2024-01-30T03:56:47;5.30;1.00
19878;DHT22;10101;52.204;9.910;2024-01-30T03:59:16;5.30;1.00
19878;DHT22;10101;52.204;9.910;2024-01-30T04:01:47;5.20;1.00
19878;DHT22;10101;52.204;9.910;2024-01-30T04:04:15;5.20;1.00
19878;DHT22;10101;52.204;9.910;2024-01-30T04:06:42;5.10;1.00
19878;DHT22;10101;52.204;9.910;2024-01-30T04:09:09;5.00;1.00
19878;DHT22;10101;52.204;9.910;2024-01-30T04:11:36;5.00;1.00
19878;DHT22;10101;52.204;9.910;2024-01-30T04:14:03;4.90;1.00
19878;DHT22;10101;52.204;9.910;2024-01-30T04:16:30;4.80;1.00
19878;DHT22;10101;52.204;9.910;2024-01-30T04:18:58;4.80;1.00
19878;DHT22;10101;52.204;9.910;2024-01-30T04:21:26;4.70;1.00
19878;DHT22;10101;52.204;9.910;2024-01-30T04:23:53;4.70;1.00
19878;DHT22;10101;52.204;9.910;2024-01-30T04:26:20;4.60;1.00
19878;DHT22;10101;52.204;9.910;2024-01-30T04:28:46;4.60;1.00
19878;DHT22;10101;52.204;9.910;2024-01-30T04:31:13;4.50;1.00
19878;DHT22;10101;52.204;9.910;2024-01-30T04:33:40;4.40;1.00
19878;DHT22;10101;52.204;9.910;2024-01-30T04:36:08;4.30;1.00
19878;DHT22;10101;52.204;9.910;2024-01-30T04:38:38;4.30;6.20
19878;DHT22;10101;52.204;9.910;2024-01-30T04:41:04;4.30;52.30
19878;DHT22;10101;52.204;9.910;2024-01-30T04:43:31;4.20;76.70
19878;DHT22;10101;52.204;9.910;2024-01-30T04:45:58;4.20;99.90
19878;DHT22;10101;52.204;9.910;2024-01-30T04:48:24;4.20;99.90
19878;DHT22;10101;52.204;9.910;2024-01-30T04:50:51;4.10;99.90
19878;DHT22;10101;52.204;9.910;2024-01-30T04:53:18;4.10;1.00
19878;DHT22;10101;52.204;9.910;2024-01-30T04:55:46;4.00;1.00
19878;DHT22;10101;52.204;9.910;2024-01-30T04:58:13;4.00;1.00
19878;DHT22;10101;52.204;9.910;2024-01-30T05:00:40;3.90;1.00
19878;DHT22;10101;52.204;9.910;2024-01-30T05:03:06;3.90;1.00
19878;DHT22;10101;52.204;9.910;2024-01-30T05:05:33;3.80;1.00
19878;DHT22;10101;52.204;9.910;2024-01-30T05:08:00;3.80;13.70
19878;DHT22;10101;52.204;9.910;2024-01-30T05:10:26;3.80;99.90
19878;DHT22;10101;52.204;9.910;2024-01-30T05:12:55;3.80;99.90
19878;DHT22;10101;52.204;9.910;2024-01-30T05:15:22;3.80;99.90
19878;DHT22;10101;52.204;9.910;2024-01-30T05:17:48;3.90;1.00
19878;DHT22;10101;52.204;9.910;2024-01-30T05:20:16;3.80;1.00
19878;DHT22;10101;52.204;9.910;2024-01-30T05:22:43;3.80;1.00
19878;DHT22;10101;52.204;9.910;2024-01-30T05:25:10;3.90;1.00
19878;DHT22;10101;52.204;9.910;2024-01-30T05:27:37;3.80;1.00
19878;DHT22;10101;52.204;9.910;2024-01-30T05:30:07;3.70;1.00
19878;DHT22;10101;52.204;9.910;2024-01-30T05:32:34;3.60;1.00
19878;DHT22;10101;52.204;9.910;2024-01-30T05:35:00;3.50;1.00
19878;DHT22;10101;52.204;9.910;2024-01-30T05:37:27;3.40;1.00
19878;DHT22;10101;52.204;9.910;2024-01-30T05:39:54;3.40;43.50
19878;DHT22;10101;52.204;9.910;2024-01-30T05:42:20;3.30;99.90
19878;DHT22;10101;52.204;9.910;2024-01-30T05:44:47;3.30;99.90
19878;DHT22;10101;52.204;9.910;2024-01-30T05:47:16;3.40;99.90
19878;DHT22;10101;52.204;9.910;2024-01-30T05:49:42;3.40;1.00
19878;DHT22;10101;52.204;9.910;2024-01-30T05:52:09;3.40;1.00
19878;DHT22;10101;52.204;9.910;2024-01-30T05:54:36;3.40;1.00
19878;DHT22;10101;52.204;9.910;2024-01-30T05:57:03;3.30;1.00
19878;DHT22;10101;52.204;9.910;2024-01-30T05:59:30;3.40;1.00
19878;DHT22;10101;52.204;9.910;2024-01-30T06:01:56;3.30;1.00
19878;DHT22;10101;52.204;9.910;2024-01-30T06:04:24;3.40;1.00
19878;DHT22;10101;52.204;9.910;2024-01-30T06:06:50;3.40;1.00
19878;DHT22;10101;52.204;9.910;2024-01-30T06:09:17;3.40;51.90
19878;DHT22;10101;52.204;9.910;2024-01-30T06:11:44;3.40;99.90
19878;DHT22;10101;52.204;9.910;2024-01-30T06:14:11;3.40;99.90
19878;DHT22;10101;52.204;9.910;2024-01-30T06:16:38;3.40;99.90
19878;DHT22;10101;52.204;9.910;2024-01-30T06:19:05;3.30;99.90
19878;DHT22;10101;52.204;9.910;2024-01-30T06:21:33;3.30;99.90
19878;DHT22;10101;52.204;9.910;2024-01-30T06:24:02;3.30;99.90
19878;DHT22;10101;52.204;9.910;2024-01-30T06:26:29;3.20;1.00
19878;DHT22;10101;52.204;9.910;2024-01-30T06:28:55;3.30;1.00
19878;DHT22;10101;52.204;9.910;2024-01-30T06:31:22;3.30;1.00
19878;DHT22;10101;52.204;9.910;2024-01-30T06:33:49;3.40;1.00
19878;DHT22;10101;52.204;9.910;2024-01-30T06:36:16;3.30;1.00
19878;DHT22;10101;52.204;9.910;2024-01-30T06:38:44;3.50;1.00
19878;DHT22;10101;52.204;9.910;2024-01-30T06:41:11;3.40;1.00
19878;DHT22;10101;52.204;9.910;2024-01-30T06:43:38;3.50;1.00
19878;DHT22;10101;52.204;9.910;2024-01-30T06:46:04;3.40;1.00
19878;DHT22;10101;52.204;9.910;2024-01-30T06:48:31;3.50;85.80
19878;DHT22;10101;52.204;9.910;2024-01-30T06:50:58;3.50;88.00
19878;DHT22;10101;52.204;9.910;2024-01-30T06:53:24;3.50;99.90
19878;DHT22;10101;52.204;9.910;2024-01-30T06:55:53;3.50;99.90
19878;DHT22;10101;52.204;9.910;2024-01-30T06:58:20;3.60;99.90
19878;DHT22;10101;52.204;9.910;2024-01-30T07:00:47;3.70;99.90
19878;DHT22;10101;52.204;9.910;2024-01-30T07:03:13;3.70;99.90
19878;DHT22;10101;52.204;9.910;2024-01-30T07:05:40;3.80;99.90
19878;DHT22;10101;52.204;9.910;2024-01-30T07:08:07;3.80;99.90
19878;DHT22;10101;52.204;9.910;2024-01-30T07:10:34;3.90;99.90
19878;DHT22;10101;52.204;9.910;2024-01-30T07:13:02;3.80;99.90
19878;DHT22;10101;52.204;9.910;2024-01-30T07:15:29;3.80;63.30
19878;DHT22;10101;52.204;9.910;2024-01-30T07:17:56;3.90;99.90
19878;DHT22;10101;52.204;9.910;2024-01-30T07:20:23;3.90;83.60
19878;DHT22;10101;52.204;9.910;2024-01-30T07:22:49;3.90;42.00
19878;DHT22;10101;52.204;9.910;2024-01-30T07:25:16;3.90;1.00
19878;DHT22;10101;52.204;9.910;2024-01-30T07:27:43;3.90;1.00
19878;DHT22;10101;52.204;9.910;2024-01-30T07:30:12;3.90;1.00
19878;DHT22;10101;52.204;9.910;2024-01-30T07:32:39;3.90;1.00
19878;DHT22;10101;52.204;9.910;2024-01-30T07:35:06;3.90;1.00
19878;DHT22;10101;52.204;9.910;2024-01-30T07:37:33;3.80;1.00
19878;DHT22;10101;52.204;9.910;2024-01-30T07:39:59;3.90;1.00
19878;DHT22;10101;52.204;9.910;2024-01-30T07:42:26;4.00;1.00
19878;DHT22;10101;52.204;9.910;2024-01-30T07:44:53;4.10;1.00
19878;DHT22;10101;52.204;9.910;2024-01-30T07:47:21;4.20;1.00
19878;DHT22;10101;52.204;9.910;2024-01-30T07:49:47;4.30;1.00
19878;DHT22;10101;52.204;9.910;2024-01-30T07:52:14;4.30;1.00
19878;DHT22;10101;52.204;9.910;2024-01-30T07:54:41;4.40;1.00
19878;DHT22;10101;52.204;9.910;2024-01-30T07:57:08;4.50;1.00
19878;DHT22;10101;52.204;9.910;2024-01-30T07:59:34;4.60;99.90
19878;DHT22;10101;52.204;9.910;2024-01-30T08:02:01;4.60;99.90
19878;DHT22;10101;52.204;9.910;2024-01-30T08:04:29;4.60;99.90
19878;DHT22;10101;52.204;9.910;2024-01-30T08:06:56;4.60;99.90
19878;DHT22;10101;52.204;9.910;2024-01-30T08:09:23;4.70;99.90
19878;DHT22;10101;52.204;9.910;2024-01-30T08:11:49;4.80;99.90
19878;DHT22;10101;52.204;9.910;2024-01-30T08:14:16;4.90;99.90
19878;DHT22;10101;52.204;9.910;2024-01-30T08:16:43;4.90;50.40
19878;DHT22;10101;52.204;9.910;2024-01-30T08:19:09;5.00;1.00
19878;DHT22;10101;52.204;9.910;2024-01-30T08:21:38;5.00;1.00
19878;DHT22;10101;52.204;9.910;2024-01-30T08:24:06;5.10;1.00
19878;DHT22;10101;52.204;9.910;2024-01-30T08:26:33;5.10;1.00
19878;DHT22;10101;52.204;9.910;2024-01-30T08:29:01;5.20;1.00
19878;DHT22;10101;52.204;9.910;2024-01-30T08:31:27;5.30;1.00
19878;DHT22;10101;52.204;9.910;2024-01-30T08:33:54;5.40;1.00
19878;DHT22;10101;52.204;9.910;2024-01-30T08:36:21;5.50;1.00
19878;DHT22;10101;52.204;9.910;2024-01-30T08:38:49;5.60;1.00
19878;DHT22;10101;52.204;9.910;2024-01-30T08:41:16;5.70;99.90
19878;DHT22;10101;52.204;9.910;2024-01-30T08:43:42;5.70;99.90
19878;DHT22;10101;52.204;9.910;2024-01-30T08:46:10;5.80;99.90
19878;DHT22;10101;52.204;9.910;2024-01-30T08:48:36;5.90;99.90
19878;DHT22;10101;52.204;9.910;2024-01-30T08:51:04;5.90;66.70
19878;DHT22;10101;52.204;9.910;2024-01-30T08:53:33;6.00;1.00
19878;DHT22;10101;52.204;9.910;2024-01-30T08:56:02;6.00;1.00
19878;DHT22;10101;52.204;9.910;2024-01-30T08:58:28;6.10;1.00
19878;DHT22;10101;52.204;9.910;2024-01-30T09:00:55;6.20;1.00
19878;DHT22;10101;52.204;9.910;2024-01-30T09:03:22;6.30;1.00
19878;DHT22;10101;52.204;9.910;2024-01-30T09:05:49;6.40;1.00
19878;DHT22;10101;52.204;9.910;2024-01-30T09:08:16;6.50;1.00
19878;DHT22;10101;52.204;9.910;2024-01-30T09:10:42;6.50;99.90
19878;DHT22;10101;52.204;9.910;2024-01-30T09:13:11;6.60;99.90
19878;DHT22;10101;52.204;9.910;2024-01-30T09:15:38;6.60;1.00
19878;DHT22;10101;52.204;9.910;2024-01-30T09:18:05;6.70;1.00
19878;DHT22;10101;52.204;9.910;2024-01-30T09:20:32;6.70;1.00
19878;DHT22;10101;52.204;9.910;2024-01-30T09:22:59;6.80;1.00
19878;DHT22;10101;52.204;9.910;2024-01-30T09:25:26;6.90;1.00
19878;DHT22;10101;52.204;9.910;2024-01-30T09:27:52;6.90;99.90
19878;DHT22;10101;52.204;9.910;2024-01-30T09:30:20;6.90;99.90
19878;DHT22;10101;52.204;9.910;2024-01-30T09:32:47;7.00;99.90
19878;DHT22;10101;52.204;9.910;2024-01-30T09:35:14;7.00;99.90
19878;DHT22;10101;52.204;9.910;2024-01-30T09:37:41;7.00;99.90
19878;DHT22;10101;52.204;9.910;2024-01-30T09:40:08;7.10;99.90
19878;DHT22;10101;52.204;9.910;2024-01-30T09:42:36;7.20;99.90
19878;DHT22;10101;52.204;9.910;2024-01-30T09:45:03;7.30;99.90
19878;DHT22;10101;52.204;9.910;2024-01-30T09:47:32;7.30;1.00
19878;DHT22;10101;52.204;9.910;2024-01-30T09:50:05;7.40;1.00
19878;DHT22;10101;52.204;9.910;2024-01-30T09:52:32;7.40;44.80
19878;DHT22;10101;52.204;9.910;2024-01-30T09:55:00;7.50;1.00
19878;DHT22;10101;52.204;9.910;2024-01-30T09:57:26;7.60;1.00
19878;DHT22;10101;52.204;9.910;2024-01-30T09:59:53;7.80;1.00
19878;DHT22;10101;52.204;9.910;2024-01-30T10:02:20;7.70;1.00
19878;DHT22;10101;52.204;9.910;2024-01-30T10:04:49;7.90;1.00
19878;DHT22;10101;52.204;9.910;2024-01-30T10:07:16;8.00;1.00
19878;DHT22;10101;52.204;9.910;2024-01-30T10:09:43;8.00;1.00
19878;DHT22;10101;52.204;9.910;2024-01-30T10:12:10;8.00;1.00
19878;DHT22;10101;52.204;9.910;2024-01-30T10:14:38;8.20;1.00
19878;DHT22;10101;52.204;9.910;2024-01-30T10:17:06;8.20;1.00
19878;DHT22;10101;52.204;9.910;2024-01-30T10:19:33;8.20;1.00
19878;DHT22;10101;52.204;9.910;2024-01-30T10:22:01;8.10;1.00
19878;DHT22;10101;52.204;9.910;2024-01-30T10:24:28;8.20;1.00
19878;DHT22;10101;52.204;9.910;2024-01-30T10:26:56;8.20;1.00
19878;DHT22;10101;52.204;9.910;2024-01-30T10:29:23;8.20;1.00
19878;DHT22;10101;52.204;9.910;2024-01-30T10:31:58;8.20;99.90
19878;DHT22;10101;52.204;9.910;2024-01-30T10:34:25;8.30;99.90
19878;DHT22;10101;52.204;9.910;2024-01-30T10:36:59;8.30;99.90
19878;DHT22;10101;52.204;9.910;2024-01-30T10:39:28;8.40;99.90
19878;DHT22;10101;52.204;9.910;2024-01-30T10:41:56;8.50;99.90
19878;DHT22;10101;52.204;9.910;2024-01-30T10:44:29;8.60;99.90
19878;DHT22;10101;52.204;9.910;2024-01-30T10:47:00;8.60;99.90
19878;DHT22;10101;52.204;9.910;2024-01-30T10:49:29;8.70;99.90
19878;DHT22;10101;52.204;9.910;2024-01-30T10:51:57;8.80;99.90
19878;DHT22;10101;52.204;9.910;2024-01-30T10:54:24;8.90;99.90
19878;DHT22;10101;52.204;9.910;2024-01-30T10:56:53;8.80;1.00
19878;DHT22;10101;52.204;9.910;2024-01-30T10:59:23;8.90;1.00
19878;DHT22;10101;52.204;9.910;2024-01-30T11:01:50;8.90;99.90
19878;DHT22;10101;52.204;9.910;2024-01-30T11:04:18;8.90;99.90
19878;DHT22;10101;52.204;9.910;2024-01-30T11:06:49;9.00;99.90
19878;DHT22;10101;52.204;9.910;2024-01-30T11:09:17;9.10;99.90
19878;DHT22;10101;52.204;9.910;2024-01-30T11:11:49;9.00;99.90
19878;DHT22;10101;52.204;9.910;2024-01-30T11:14:23;9.10;99.90
19878;DHT22;10101;52.204;9.910;2024-01-30T11:16:49;9.20;99.90
19878;DHT22;10101;52.204;9.910;2024-01-30T11:19:22;9.20;99.90
19878;DHT22;10101;52.204;9.910;2024-01-30T11:21:50;9.20;99.90
19878;DHT22;10101;52.204;9.910;2024-01-30T11:24:19;9.30;1.00
19878;DHT22;10101;52.204;9.910;2024-01-30T11:26:48;9.30;99.90
19878;DHT22;10101;52.204;9.910;2024-01-30T11:29:14;9.30;99.90
19878;DHT22;10101;52.204;9.910;2024-01-30T11:31:52;9.40;99.90
19878;DHT22;10101;52.204;9.910;2024-01-30T11:34:20;9.60;99.90
19878;DHT22;10101;52.204;9.910;2024-01-30T11:36:51;9.50;99.90
19878;DHT22;10101;52.204;9.910;2024-01-30T11:39:20;9.70;99.90
19878;DHT22;10101;52.204;9.910;2024-01-30T11:41:48;9.70;99.90
19878;DHT22;10101;52.204;9.910;2024-01-30T11:44:17;9.70;99.90
19878;DHT22;10101;52.204;9.910;2024-01-30T11:46:45;9.80;99.90
19878;DHT22;10101;52.204;9.910;2024-01-30T11:49:14;10.00;99.90
19878;DHT22;10101;52.204;9.910;2024-01-30T11:51:41;9.80;99.90
19878;DHT22;10101;52.204;9.910;2024-01-30T11:54:07;9.80;99.90
19878;DHT22;10101;52.204;9.910;2024-01-30T11:56:34;9.90;99.90
19878;DHT22;10101;52.204;9.910;2024-01-30T11:59:01;10.00;1.00
19878;DHT22;10101;52.204;9.910;2024-01-30T12:01:28;10.00;1.00
19878;DHT22;10101;52.204;9.910;2024-01-30T12:03:54;9.90;99.90
19878;DHT22;10101;52.204;9.910;2024-01-30T12:06:23;10.10;1.00
19878;DHT22;10101;52.204;9.910;2024-01-30T12:09:01;10.10;99.90
19878;DHT22;10101;52.204;9.910;2024-01-30T12:11:29;10.10;99.90
19878;DHT22;10101;52.204;9.910;2024-01-30T12:13:56;10.10;99.90
19878;DHT22;10101;52.204;9.910;2024-01-30T12:16:23;10.10;99.90
19878;DHT22;10101;52.204;9.910;2024-01-30T12:18:59;10.10;99.90
19878;DHT22;10101;52.204;9.910;2024-01-30T12:21:27;10.20;99.90
19878;DHT22;10101;52.204;9.910;2024-01-30T12:23:54;10.20;99.90
19878;DHT22;10101;52.204;9.910;2024-01-30T12:26:21;10.30;99.90
19878;DHT22;10101;52.204;9.910;2024-01-30T12:28:48;10.30;99.90
19878;DHT22;10101;52.204;9.910;2024-01-30T12:31:15;10.40;99.90
19878;DHT22;10101;52.204;9.910;2024-01-30T12:33:42;10.30;99.90
19878;DHT22;10101;52.204;9.910;2024-01-30T12:36:09;10.30;99.90
19878;DHT22;10101;52.204;9.910;2024-01-30T12:38:37;10.30;99.90
19878;DHT22;10101;52.204;9.910;2024-01-30T12:41:04;10.20;99.90
19878;DHT22;10101;52.204;9.910;2024-01-30T12:43:33;10.20;99.90
19878;DHT22;10101;52.204;9.910;2024-01-30T12:45:59;10.40;99.90
19878;DHT22;10101;52.204;9.910;2024-01-30T12:48:27;10.40;99.90
19878;DHT22;10101;52.204;9.910;2024-01-30T12:50:55;10.50;99.90
19878;DHT22;10101;52.204;9.910;2024-01-30T12:53:22;10.60;1.00
19878;DHT22;10101;52.204;9.910;2024-01-30T12:55:50;10.70;1.00
19878;DHT22;10101;52.204;9.910;2024-01-30T12:58:17;10.70;99.90
19878;DHT22;10101;52.204;9.910;2024-01-30T13:00:44;10.90;1.00
19878;DHT22;10101;52.204;9.910;2024-01-30T13:03:10;10.80;99.90
19878;DHT22;10101;52.204;9.910;2024-01-30T13:05:37;10.80;99.90
19878;DHT22;10101;52.204;9.910;2024-01-30T13:08:05;10.80;99.90
19878;DHT22;10101;52.204;9.910;2024-01-30T13:10:31;10.70;99.90
19878;DHT22;10101;52.204;9.910;2024-01-30T13:13:00;10.70;99.90
19878;DHT22;10101;52.204;9.910;2024-01-30T13:15:26;10.80;99.90
19878;DHT22;10101;52.204;9.910;2024-01-30T13:17:53;10.90;99.90
19878;DHT22;10101;52.204;9.910;2024-01-30T13:20:20;10.80;99.90
19878;DHT22;10101;52.204;9.910;2024-01-30T13:22:47;10.80;99.90
19878;DHT22;10101;52.204;9.910;2024-01-30T13:25:15;10.80;99.90
19878;DHT22;10101;52.204;9.910;2024-01-30T13:27:42;10.70;99.90
19878;DHT22;10101;52.204;9.910;2024-01-30T13:30:10;10.70;99.90
19878;DHT22;10101;52.204;9.910;2024-01-30T13:32:37;10.70;99.90
19878;DHT22;10101;52.204;9.910;2024-01-30T13:35:07;10.70;99.90
19878;DHT22;10101;52.204;9.910;2024-01-30T13:37:34;10.70;99.90
19878;DHT22;10101;52.204;9.910;2024-01-30T13:40:01;10.70;99.90
19878;DHT22;10101;52.204;9.910;2024-01-30T13:42:28;10.50;99.90
19878;DHT22;10101;52.204;9.910;2024-01-30T13:44:54;10.50;99.90
19878;DHT22;10101;52.204;9.910;2024-01-30T13:47:22;10.40;99.90
19878;DHT22;10101;52.204;9.910;2024-01-30T13:49:50;10.50;99.90
19878;DHT22;10101;52.204;9.910;2024-01-30T13:52:18;10.30;99.90
19878;DHT22;10101;52.204;9.910;2024-01-30T13:54:45;10.50;99.90
19878;DHT22;10101;52.204;9.910;2024-01-30T13:57:11;10.40;99.90
19878;DHT22;10101;52.204;9.910;2024-01-30T13:59:38;10.40;99.90
19878;DHT22;10101;52.204;9.910;2024-01-30T14:02:05;10.40;99.90
19878;DHT22;10101;52.204;9.910;2024-01-30T14:04:35;10.30;99.90
19878;DHT22;10101;52.204;9.910;2024-01-30T14:07:03;10.30;99.90
19878;DHT22;10101;52.204;9.910;2024-01-30T14:09:29;10.30;99.90
19878;DHT22;10101;52.204;9.910;2024-01-30T14:11:57;10.20;99.90
19878;DHT22;10101;52.204;9.910;2024-01-30T14:14:24;10.20;99.90
19878;DHT22;10101;52.204;9.910;2024-01-30T14:16:51;10.20;99.90
19878;DHT22;10101;52.204;9.910;2024-01-30T14:19:18;10.20;99.90
19878;DHT22;10101;52.204;9.910;2024-01-30T14:21:46;10.20;99.90
19878;DHT22;10101;52.204;9.910;2024-01-30T14:24:13;10.20;99.90
19878;DHT22;10101;52.204;9.910;2024-01-30T14:26:39;10.20;99.90
19878;DHT22;10101;52.204;9.910;2024-01-30T14:29:05;10.20;99.90
19878;DHT22;10101;52.204;9.910;2024-01-30T14:31:32;10.20;99.90
19878;DHT22;10101;52.204;9.910;2024-01-30T14:33:59;10.10;99.90
19878;DHT22;10101;52.204;9.910;2024-01-30T14:36:26;10.10;99.90
19878;DHT22;10101;52.204;9.910;2024-01-30T14:38:55;10.10;92.30
19878;DHT22;10101;52.204;9.910;2024-01-30T14:41:21;10.00;57.20
19878;DHT22;10101;52.204;9.910;2024-01-30T14:43:48;10.00;48.90
19878;DHT22;10101;52.204;9.910;2024-01-30T14:46:15;9.90;1.00
19878;DHT22;10101;52.204;9.910;2024-01-30T14:48:42;10.00;1.00
19878;DHT22;10101;52.204;9.910;2024-01-30T14:51:09;9.90;1.00
19878;DHT22;10101;52.204;9.910;2024-01-30T14:53:36;9.90;1.00
19878;DHT22;10101;52.204;9.910;2024-01-30T14:56:04;10.00;25.50
19878;DHT22;10101;52.204;9.910;2024-01-30T14:58:31;10.00;35.50
19878;DHT22;10101;52.204;9.910;2024-01-30T15:00:58;10.00;74.70
19878;DHT22;10101;52.204;9.910;2024-01-30T15:03:27;10.10;42.50
19878;DHT22;10101;52.204;9.910;2024-01-30T15:05:53;10.00;32.60
19878;DHT22;10101;52.204;9.910;2024-01-30T15:08:21;10.00;82.40
19878;DHT22;10101;52.204;9.910;2024-01-30T15:10:48;10.00;99.90
19878;DHT22;10101;52.204;9.910;2024-01-30T15:13:17;10.00;99.90
19878;DHT22;10101;52.204;9.910;2024-01-30T15:15:44;10.10;99.90
19878;DHT22;10101;52.204;9.910;2024-01-30T15:18:11;10.10;99.90
19878;DHT22;10101;52.204;9.910;2024-01-30T15:20:38;10.10;99.90
19878;DHT22;10101;52.204;9.910;2024-01-30T15:23:05;10.10;99.90
19878;DHT22;10101;52.204;9.910;2024-01-30T15:25:31;10.00;99.90
19878;DHT22;10101;52.204;9.910;2024-01-30T15:27:58;10.00;99.90
19878;DHT22;10101;52.204;9.910;2024-01-30T15:30:26;10.10;99.90
19878;DHT22;10101;52.204;9.910;2024-01-30T15:32:53;10.10;99.90
19878;DHT22;10101;52.204;9.910;2024-01-30T15:35:20;10.00;99.90
19878;DHT22;10101;52.204;9.910;2024-01-30T15:37:47;10.00;99.90
19878;DHT22;10101;52.204;9.910;2024-01-30T15:40:14;10.00;99.90
19878;DHT22;10101;52.204;9.910;2024-01-30T15:42:41;10.00;99.90
19878;DHT22;10101;52.204;9.910;2024-01-30T15:45:08;9.90;99.90
19878;DHT22;10101;52.204;9.910;2024-01-30T15:47:37;9.80;99.90
19878;DHT22;10101;52.204;9.910;2024-01-30T15:50:04;9.70;99.90